Christine Anderson — WCN2606 — position and weather

sailwx.info

Track history (hours):
 
Tides and Currents Weather Stations Pressure Air Temp Water Temp Dewpoint Dewpoint Depression Visibility Wind Speed Wind Dir Waves Ship Positions

Christine Anderson

Owner: PIERCE, COUNTY OF, TACOMA, WA. More information available from US FCC via Universal Licensing System and Coast Guard Vessel Documentation Center.

Last reported at 2016-Sep-28 01:30 UTC. Time now 2016-Sep-28 01:50 UTC.
Position N 47°10' W 122°36'.

MMSI: 366659730.

Date/timePositionNaut miles runAvg speedWind from/ knotsBaromVisibWave heightAir tempDewpointWater temp
2016-Sep-28 01:30N 47°10' W 122°36'2 1.0
2016-Sep-27 23:33N 47°11' W 122°39'0 0.1
2016-Sep-27 19:34N 47°11' W 122°40'0 0.0
2016-Sep-27 14:34N 47°11' W 122°40'2 2.4
2016-Sep-27 13:32N 47°10' W 122°36'0 0.0
2016-Sep-27 00:33N 47°11' W 122°37'0 0.1
2016-Sep-26 20:34N 47°10' W 122°36'3 2.4
2016-Sep-26 19:17N 47°11' W 122°41'0 0.1
2016-Sep-26 15:34N 47°11' W 122°40'3 1.3
2016-Sep-26 13:33N 47°10' W 122°36'0 0.0
2016-Sep-26 11:32N 47°10' W 122°36'1 0.1
2016-Sep-26 02:34N 47°10' W 122°38'1 1.2
2016-Sep-26 01:33N 47°10' W 122°36'0 0.2
2016-Sep-26 00:32N 47°11' W 122°36'2 0.7
2016-Sep-25 21:34N 47°11' W 122°40'1 0.2
2016-Sep-25 17:26N 47°11' W 122°41'1 0.7
2016-Sep-25 16:33N 47°11' W 122°40'0 0.1
2016-Sep-25 15:33N 47°11' W 122°40'0 0.1
2016-Sep-25 14:33N 47°11' W 122°40'2 0.2
2016-Sep-25 04:33N 47°10' W 122°36'0 0.1
2016-Sep-25 00:32N 47°11' W 122°36'1 0.6
2016-Sep-24 22:33N 47°11' W 122°38'1 0.5
2016-Sep-24 21:33N 47°11' W 122°39'1 0.3
2016-Sep-24 19:33N 47°11' W 122°40'3 2.5
2016-Sep-24 18:33N 47°10' W 122°36'2 2.4
2016-Sep-24 17:33N 47°11' W 122°40'0 0.1
2016-Sep-24 16:33N 47°11' W 122°40'0 0.0
2016-Sep-24 14:33N 47°11' W 122°40'2 1.2
2016-Sep-24 12:32N 47°10' W 122°36'0 0.0
2016-Sep-24 03:33N 47°10' W 122°36'1 1.3
2016-Sep-24 02:33N 47°10' W 122°38'1 1.3
2016-Sep-24 01:33N 47°10' W 122°36'0 0.0
2016-Sep-24 00:33N 47°10' W 122°36'3 0.6
2016-Sep-23 19:33N 47°11' W 122°40'0 0.1
2016-Sep-23 17:32N 47°11' W 122°40'0 0.3
2016-Sep-23 16:33N 47°11' W 122°40'0 0.2
2016-Sep-23 15:33N 47°11' W 122°40'3 1.2
2016-Sep-23 13:33N 47°10' W 122°36'0 0.0
2016-Sep-23 04:33N 47°10' W 122°36'0 0.0
2016-Sep-23 03:33N 47°10' W 122°36'1 1.2
2016-Sep-23 02:32N 47°10' W 122°38'1 1.3
2016-Sep-23 01:32N 47°10' W 122°36'0 0.1
2016-Sep-23 00:32N 47°11' W 122°36'2 2.3
2016-Sep-22 23:33N 47°11' W 122°40'2 0.8
2016-Sep-22 20:33N 47°10' W 122°36'0 0.0
2016-Sep-22 12:33N 47°10' W 122°36'0 0.0
2016-Sep-22 04:30N 47°10' W 122°36'0 0.0
2016-Sep-22 00:32N 47°11' W 122°36'1 0.6
2016-Sep-21 23:33N 47°11' W 122°37'1 1.0
2016-Sep-21 22:30N 47°11' W 122°39'1 0.4
2016-Sep-21 19:33N 47°11' W 122°41'1 0.2
2016-Sep-21 16:33N 47°11' W 122°40'2 0.1
2016-Sep-21 02:32N 47°10' W 122°38'1 0.1
2016-Sep-20 17:27N 47°11' W 122°38'1 0.5
2016-Sep-20 14:22N 47°11' W 122°41'3 3.7
2016-Sep-20 13:33N 47°10' W 122°36'1 0.1
2016-Sep-20 02:26N 47°10' W 122°38'1 0.4
2016-Sep-19 23:33N 47°11' W 122°37'  
Track history (hours):
 
Tides and Currents Weather Stations Pressure Air Temp Water Temp Dewpoint Dewpoint Depression Visibility Wind Speed Wind Dir Waves Ship Positions

Christine Anderson

Owner: PIERCE, COUNTY OF, TACOMA, WA. More information available from US FCC via Universal Licensing System and Coast Guard Vessel Documentation Center.

Last reported at 2016-Sep-28 01:30 UTC. Time now 2016-Sep-28 01:50 UTC.
Position N 47°10' W 122°36'.

MMSI: 366659730.

Date/timePositionNaut miles runAvg speedWind from/ knotsBaromVisibWave heightAir tempDewpointWater temp
2016-Sep-28 01:30N 47°10' W 122°36'2 1.0
2016-Sep-27 23:33N 47°11' W 122°39'0 0.1
2016-Sep-27 19:34N 47°11' W 122°40'0 0.0
2016-Sep-27 14:34N 47°11' W 122°40'2 2.4
2016-Sep-27 13:32N 47°10' W 122°36'0 0.0
2016-Sep-27 00:33N 47°11' W 122°37'0 0.1
2016-Sep-26 20:34N 47°10' W 122°36'3 2.4
2016-Sep-26 19:17N 47°11' W 122°41'0 0.1
2016-Sep-26 15:34N 47°11' W 122°40'3 1.3
2016-Sep-26 13:33N 47°10' W 122°36'0 0.0
2016-Sep-26 11:32N 47°10' W 122°36'1 0.1
2016-Sep-26 02:34N 47°10' W 122°38'1 1.2
2016-Sep-26 01:33N 47°10' W 122°36'0 0.2
2016-Sep-26 00:32N 47°11' W 122°36'2 0.7
2016-Sep-25 21:34N 47°11' W 122°40'1 0.2
2016-Sep-25 17:26N 47°11' W 122°41'1 0.7
2016-Sep-25 16:33N 47°11' W 122°40'0 0.1
2016-Sep-25 15:33N 47°11' W 122°40'0 0.1
2016-Sep-25 14:33N 47°11' W 122°40'2 0.2
2016-Sep-25 04:33N 47°10' W 122°36'0 0.1
2016-Sep-25 00:32N 47°11' W 122°36'1 0.6
2016-Sep-24 22:33N 47°11' W 122°38'1 0.5
2016-Sep-24 21:33N 47°11' W 122°39'1 0.3
2016-Sep-24 19:33N 47°11' W 122°40'3 2.5
2016-Sep-24 18:33N 47°10' W 122°36'2 2.4
2016-Sep-24 17:33N 47°11' W 122°40'0 0.1
2016-Sep-24 16:33N 47°11' W 122°40'0 0.0
2016-Sep-24 14:33N 47°11' W 122°40'2 1.2
2016-Sep-24 12:32N 47°10' W 122°36'0 0.0
2016-Sep-24 03:33N 47°10' W 122°36'1 1.3
2016-Sep-24 02:33N 47°10' W 122°38'1 1.3
2016-Sep-24 01:33N 47°10' W 122°36'0 0.0
2016-Sep-24 00:33N 47°10' W 122°36'3 0.6
2016-Sep-23 19:33N 47°11' W 122°40'0 0.1
2016-Sep-23 17:32N 47°11' W 122°40'0 0.3
2016-Sep-23 16:33N 47°11' W 122°40'0 0.2
2016-Sep-23 15:33N 47°11' W 122°40'3 1.2
2016-Sep-23 13:33N 47°10' W 122°36'0 0.0
2016-Sep-23 04:33N 47°10' W 122°36'0 0.0
2016-Sep-23 03:33N 47°10' W 122°36'1 1.2
2016-Sep-23 02:32N 47°10' W 122°38'1 1.3
2016-Sep-23 01:32N 47°10' W 122°36'0 0.1
2016-Sep-23 00:32N 47°11' W 122°36'2 2.3
2016-Sep-22 23:33N 47°11' W 122°40'2 0.8
2016-Sep-22 20:33N 47°10' W 122°36'0 0.0
2016-Sep-22 12:33N 47°10' W 122°36'0 0.0
2016-Sep-22 04:30N 47°10' W 122°36'0 0.0
2016-Sep-22 00:32N 47°11' W 122°36'1 0.6
2016-Sep-21 23:33N 47°11' W 122°37'1 1.0
2016-Sep-21 22:30N 47°11' W 122°39'1 0.4
2016-Sep-21 19:33N 47°11' W 122°41'1 0.2
2016-Sep-21 16:33N 47°11' W 122°40'2 0.1
2016-Sep-21 02:32N 47°10' W 122°38'1 0.1
2016-Sep-20 17:27N 47°11' W 122°38'1 0.5
2016-Sep-20 14:22N 47°11' W 122°41'3 3.7
2016-Sep-20 13:33N 47°10' W 122°36'1 0.1
2016-Sep-20 02:26N 47°10' W 122°38'1 0.4
2016-Sep-19 23:33N 47°11' W 122°37'  

Dump ship's entire track history